sensor_id;sensor_type;location;lat;lon;timestamp;P1;durP1;ratioP1;P2;durP2;ratioP2
15022;SDS011;19850;49.576;10.880;2022-12-20T00:01:14;30.65;;;25.55;;
15022;SDS011;19850;49.576;10.880;2022-12-20T00:05:19;34.73;;;23.67;;
15022;SDS011;19850;49.576;10.880;2022-12-20T00:09:23;33.77;;;22.97;;
15022;SDS011;19850;49.576;10.880;2022-12-20T00:13:26;30.30;;;21.30;;
15022;SDS011;19850;49.576;10.880;2022-12-20T00:17:29;35.37;;;23.40;;
15022;SDS011;19850;49.576;10.880;2022-12-20T00:21:33;30.03;;;21.87;;
15022;SDS011;19850;49.576;10.880;2022-12-20T00:25:37;32.77;;;21.90;;
15022;SDS011;19850;49.576;10.880;2022-12-20T00:29:40;31.90;;;22.03;;
15022;SDS011;19850;49.576;10.880;2022-12-20T00:33:44;30.53;;;21.50;;
15022;SDS011;19850;49.576;10.880;2022-12-20T00:37:48;30.37;;;21.07;;
15022;SDS011;19850;49.576;10.880;2022-12-20T00:41:52;29.30;;;21.83;;
15022;SDS011;19850;49.576;10.880;2022-12-20T00:45:55;31.53;;;21.70;;
15022;SDS011;19850;49.576;10.880;2022-12-20T00:49:59;30.57;;;21.03;;
15022;SDS011;19850;49.576;10.880;2022-12-20T00:54:02;31.83;;;21.93;;
15022;SDS011;19850;49.576;10.880;2022-12-20T00:58:06;32.53;;;22.83;;
15022;SDS011;19850;49.576;10.880;2022-12-20T01:02:11;30.00;;;21.87;;
15022;SDS011;19850;49.576;10.880;2022-12-20T01:06:14;31.57;;;21.60;;
15022;SDS011;19850;49.576;10.880;2022-12-20T01:10:17;30.47;;;20.80;;
15022;SDS011;19850;49.576;10.880;2022-12-20T01:14:22;30.73;;;20.70;;
15022;SDS011;19850;49.576;10.880;2022-12-20T01:18:24;29.17;;;20.93;;
15022;SDS011;19850;49.576;10.880;2022-12-20T01:22:27;31.30;;;21.27;;
15022;SDS011;19850;49.576;10.880;2022-12-20T01:26:30;28.73;;;20.50;;
15022;SDS011;19850;49.576;10.880;2022-12-20T01:30:34;30.13;;;20.33;;
15022;SDS011;19850;49.576;10.880;2022-12-20T01:34:37;29.57;;;20.47;;
15022;SDS011;19850;49.576;10.880;2022-12-20T01:38:40;28.67;;;20.73;;
15022;SDS011;19850;49.576;10.880;2022-12-20T01:42:43;27.27;;;20.10;;
15022;SDS011;19850;49.576;10.880;2022-12-20T01:46:48;27.60;;;19.33;;
15022;SDS011;19850;49.576;10.880;2022-12-20T01:50:52;30.77;;;21.03;;
15022;SDS011;19850;49.576;10.880;2022-12-20T01:54:55;28.67;;;20.30;;
15022;SDS011;19850;49.576;10.880;2022-12-20T01:59:01;30.10;;;21.63;;
15022;SDS011;19850;49.576;10.880;2022-12-20T02:03:06;30.80;;;21.53;;
15022;SDS011;19850;49.576;10.880;2022-12-20T02:07:13;27.47;;;19.83;;
15022;SDS011;19850;49.576;10.880;2022-12-20T02:11:23;31.23;;;21.90;;
15022;SDS011;19850;49.576;10.880;2022-12-20T02:15:38;29.50;;;20.93;;
15022;SDS011;19850;49.576;10.880;2022-12-20T02:24:26;29.10;;;20.17;;
15022;SDS011;19850;49.576;10.880;2022-12-20T02:28:53;27.73;;;20.40;;
15022;SDS011;19850;49.576;10.880;2022-12-20T02:33:06;31.63;;;21.70;;
15022;SDS011;19850;49.576;10.880;2022-12-20T02:37:10;28.67;;;21.07;;
15022;SDS011;19850;49.576;10.880;2022-12-20T02:41:14;28.40;;;20.27;;
15022;SDS011;19850;49.576;10.880;2022-12-20T02:45:19;30.57;;;21.47;;
15022;SDS011;19850;49.576;10.880;2022-12-20T02:49:25;31.20;;;21.50;;
15022;SDS011;19850;49.576;10.880;2022-12-20T02:53:30;28.70;;;21.27;;
15022;SDS011;19850;49.576;10.880;2022-12-20T02:57:36;30.17;;;21.50;;
15022;SDS011;19850;49.576;10.880;2022-12-20T03:01:43;28.73;;;21.07;;
15022;SDS011;19850;49.576;10.880;2022-12-20T03:05:49;28.47;;;20.70;;
15022;SDS011;19850;49.576;10.880;2022-12-20T03:09:53;31.87;;;22.10;;
15022;SDS011;19850;49.576;10.880;2022-12-20T03:13:56;30.50;;;20.73;;
15022;SDS011;19850;49.576;10.880;2022-12-20T03:17:59;31.40;;;21.23;;
15022;SDS011;19850;49.576;10.880;2022-12-20T03:22:03;30.73;;;21.43;;
15022;SDS011;19850;49.576;10.880;2022-12-20T03:26:06;31.27;;;21.27;;
15022;SDS011;19850;49.576;10.880;2022-12-20T03:30:09;28.50;;;20.73;;
15022;SDS011;19850;49.576;10.880;2022-12-20T03:34:13;30.03;;;21.23;;
15022;SDS011;19850;49.576;10.880;2022-12-20T03:38:17;30.23;;;21.83;;
15022;SDS011;19850;49.576;10.880;2022-12-20T03:42:20;30.57;;;21.87;;
15022;SDS011;19850;49.576;10.880;2022-12-20T03:46:22;32.03;;;21.77;;
15022;SDS011;19850;49.576;10.880;2022-12-20T03:50:26;33.33;;;23.17;;
15022;SDS011;19850;49.576;10.880;2022-12-20T03:54:30;29.13;;;21.30;;
15022;SDS011;19850;49.576;10.880;2022-12-20T03:58:33;29.87;;;20.80;;
15022;SDS011;19850;49.576;10.880;2022-12-20T04:02:35;29.77;;;21.83;;
15022;SDS011;19850;49.576;10.880;2022-12-20T04:06:39;28.57;;;21.13;;
15022;SDS011;19850;49.576;10.880;2022-12-20T04:10:43;27.83;;;21.30;;
15022;SDS011;19850;49.576;10.880;2022-12-20T04:15:03;30.87;;;21.70;;
15022;SDS011;19850;49.576;10.880;2022-12-20T04:19:07;31.67;;;21.53;;
15022;SDS011;19850;49.576;10.880;2022-12-20T04:23:10;31.07;;;21.73;;
15022;SDS011;19850;49.576;10.880;2022-12-20T04:27:14;29.33;;;20.83;;
15022;SDS011;19850;49.576;10.880;2022-12-20T04:31:17;29.43;;;21.50;;
15022;SDS011;19850;49.576;10.880;2022-12-20T04:35:24;31.30;;;21.07;;
15022;SDS011;19850;49.576;10.880;2022-12-20T04:39:27;31.27;;;21.00;;
15022;SDS011;19850;49.576;10.880;2022-12-20T04:43:31;29.60;;;21.83;;
15022;SDS011;19850;49.576;10.880;2022-12-20T04:47:34;30.93;;;21.63;;
15022;SDS011;19850;49.576;10.880;2022-12-20T04:51:37;31.83;;;21.67;;
15022;SDS011;19850;49.576;10.880;2022-12-20T04:55:40;32.57;;;21.83;;
15022;SDS011;19850;49.576;10.880;2022-12-20T04:59:44;27.37;;;20.07;;
15022;SDS011;19850;49.576;10.880;2022-12-20T05:03:47;29.53;;;20.70;;
15022;SDS011;19850;49.576;10.880;2022-12-20T05:07:51;29.30;;;20.83;;
15022;SDS011;19850;49.576;10.880;2022-12-20T05:11:54;30.93;;;21.50;;
15022;SDS011;19850;49.576;10.880;2022-12-20T05:15:58;27.77;;;20.90;;
15022;SDS011;19850;49.576;10.880;2022-12-20T05:20:03;29.30;;;21.23;;
15022;SDS011;19850;49.576;10.880;2022-12-20T05:24:08;25.57;;;19.67;;
15022;SDS011;19850;49.576;10.880;2022-12-20T05:28:29;29.97;;;21.47;;
15022;SDS011;19850;49.576;10.880;2022-12-20T05:32:33;27.23;;;20.07;;
15022;SDS011;19850;49.576;10.880;2022-12-20T05:36:36;28.43;;;20.97;;
15022;SDS011;19850;49.576;10.880;2022-12-20T05:40:39;28.77;;;21.07;;
15022;SDS011;19850;49.576;10.880;2022-12-20T05:44:43;32.87;;;22.37;;
15022;SDS011;19850;49.576;10.880;2022-12-20T05:48:47;28.20;;;20.37;;
15022;SDS011;19850;49.576;10.880;2022-12-20T05:52:50;28.17;;;20.23;;
15022;SDS011;19850;49.576;10.880;2022-12-20T05:56:52;28.93;;;21.27;;
15022;SDS011;19850;49.576;10.880;2022-12-20T06:00:55;27.97;;;21.17;;
15022;SDS011;19850;49.576;10.880;2022-12-20T06:04:59;29.97;;;21.57;;
15022;SDS011;19850;49.576;10.880;2022-12-20T06:09:03;30.00;;;21.40;;
15022;SDS011;19850;49.576;10.880;2022-12-20T06:13:06;30.63;;;22.20;;
15022;SDS011;19850;49.576;10.880;2022-12-20T06:17:10;27.40;;;20.03;;
15022;SDS011;19850;49.576;10.880;2022-12-20T06:21:14;30.03;;;21.80;;
15022;SDS011;19850;49.576;10.880;2022-12-20T06:25:18;29.13;;;20.87;;
15022;SDS011;19850;49.576;10.880;2022-12-20T06:29:24;30.13;;;21.73;;
15022;SDS011;19850;49.576;10.880;2022-12-20T06:33:27;30.90;;;22.70;;
15022;SDS011;19850;49.576;10.880;2022-12-20T06:37:33;29.30;;;22.13;;
15022;SDS011;19850;49.576;10.880;2022-12-20T06:41:36;31.17;;;23.97;;
15022;SDS011;19850;49.576;10.880;2022-12-20T06:45:39;30.70;;;23.63;;
15022;SDS011;19850;49.576;10.880;2022-12-20T06:49:43;27.63;;;20.57;;
15022;SDS011;19850;49.576;10.880;2022-12-20T06:53:47;27.57;;;20.90;;
15022;SDS011;19850;49.576;10.880;2022-12-20T06:57:50;28.87;;;21.87;;
15022;SDS011;19850;49.576;10.880;2022-12-20T07:01:53;29.17;;;21.53;;
15022;SDS011;19850;49.576;10.880;2022-12-20T07:05:56;30.30;;;22.83;;
15022;SDS011;19850;49.576;10.880;2022-12-20T07:10:00;26.63;;;20.63;;
15022;SDS011;19850;49.576;10.880;2022-12-20T07:14:03;29.67;;;21.53;;
15022;SDS011;19850;49.576;10.880;2022-12-20T07:18:06;29.33;;;21.43;;
15022;SDS011;19850;49.576;10.880;2022-12-20T07:22:09;27.80;;;20.03;;
15022;SDS011;19850;49.576;10.880;2022-12-20T07:26:13;28.83;;;21.73;;
15022;SDS011;19850;49.576;10.880;2022-12-20T07:30:17;28.93;;;20.77;;
15022;SDS011;19850;49.576;10.880;2022-12-20T07:34:20;29.07;;;21.60;;
15022;SDS011;19850;49.576;10.880;2022-12-20T07:38:23;29.60;;;21.80;;
15022;SDS011;19850;49.576;10.880;2022-12-20T07:42:27;27.93;;;21.03;;
15022;SDS011;19850;49.576;10.880;2022-12-20T07:46:36;26.63;;;20.20;;
15022;SDS011;19850;49.576;10.880;2022-12-20T07:50:39;28.90;;;21.23;;
15022;SDS011;19850;49.576;10.880;2022-12-20T07:54:43;28.83;;;20.60;;
15022;SDS011;19850;49.576;10.880;2022-12-20T07:58:50;29.93;;;21.23;;
15022;SDS011;19850;49.576;10.880;2022-12-20T08:02:57;31.60;;;21.10;;
15022;SDS011;19850;49.576;10.880;2022-12-20T08:07:04;31.00;;;21.37;;
15022;SDS011;19850;49.576;10.880;2022-12-20T08:11:07;29.07;;;21.63;;
15022;SDS011;19850;49.576;10.880;2022-12-20T08:15:12;29.10;;;21.30;;
15022;SDS011;19850;49.576;10.880;2022-12-20T08:19:15;28.60;;;20.63;;
15022;SDS011;19850;49.576;10.880;2022-12-20T08:23:18;29.60;;;21.87;;
15022;SDS011;19850;49.576;10.880;2022-12-20T08:27:21;26.77;;;20.73;;
15022;SDS011;19850;49.576;10.880;2022-12-20T08:31:25;27.97;;;20.43;;
15022;SDS011;19850;49.576;10.880;2022-12-20T08:35:29;29.13;;;21.87;;
15022;SDS011;19850;49.576;10.880;2022-12-20T08:39:31;30.07;;;22.30;;
15022;SDS011;19850;49.576;10.880;2022-12-20T08:43:34;28.97;;;20.00;;
15022;SDS011;19850;49.576;10.880;2022-12-20T08:47:39;26.80;;;20.13;;
15022;SDS011;19850;49.576;10.880;2022-12-20T08:51:42;28.53;;;20.93;;
15022;SDS011;19850;49.576;10.880;2022-12-20T08:55:44;26.90;;;21.23;;
15022;SDS011;19850;49.576;10.880;2022-12-20T08:59:47;26.93;;;20.97;;
15022;SDS011;19850;49.576;10.880;2022-12-20T09:03:51;25.90;;;19.90;;
15022;SDS011;19850;49.576;10.880;2022-12-20T09:07:54;25.53;;;19.70;;
15022;SDS011;19850;49.576;10.880;2022-12-20T09:11:57;27.40;;;19.67;;
15022;SDS011;19850;49.576;10.880;2022-12-20T09:16:00;26.40;;;20.33;;
15022;SDS011;19850;49.576;10.880;2022-12-20T09:20:05;28.87;;;19.77;;
15022;SDS011;19850;49.576;10.880;2022-12-20T09:24:09;31.23;;;22.17;;
15022;SDS011;19850;49.576;10.880;2022-12-20T09:28:13;28.77;;;21.17;;
15022;SDS011;19850;49.576;10.880;2022-12-20T09:32:15;27.87;;;20.40;;
15022;SDS011;19850;49.576;10.880;2022-12-20T09:36:20;27.20;;;20.97;;
15022;SDS011;19850;49.576;10.880;2022-12-20T09:40:25;27.20;;;20.13;;
15022;SDS011;19850;49.576;10.880;2022-12-20T09:44:31;28.37;;;19.87;;
15022;SDS011;19850;49.576;10.880;2022-12-20T09:48:37;27.87;;;20.70;;
15022;SDS011;19850;49.576;10.880;2022-12-20T09:52:49;26.17;;;19.53;;
15022;SDS011;19850;49.576;10.880;2022-12-20T09:56:58;26.77;;;20.17;;
15022;SDS011;19850;49.576;10.880;2022-12-20T10:01:10;27.73;;;20.30;;
15022;SDS011;19850;49.576;10.880;2022-12-20T10:05:26;28.23;;;20.53;;
15022;SDS011;19850;49.576;10.880;2022-12-20T10:09:46;24.53;;;18.93;;
15022;SDS011;19850;49.576;10.880;2022-12-20T10:14:14;26.47;;;21.00;;
15022;SDS011;19850;49.576;10.880;2022-12-20T10:18:33;26.00;;;19.67;;
15022;SDS011;19850;49.576;10.880;2022-12-20T10:22:45;25.20;;;19.33;;
15022;SDS011;19850;49.576;10.880;2022-12-20T10:26:52;26.63;;;20.37;;
15022;SDS011;19850;49.576;10.880;2022-12-20T10:30:57;24.83;;;18.00;;
15022;SDS011;19850;49.576;10.880;2022-12-20T10:35:11;27.77;;;19.80;;
15022;SDS011;19850;49.576;10.880;2022-12-20T10:39:26;24.17;;;18.50;;
15022;SDS011;19850;49.576;10.880;2022-12-20T10:43:43;24.43;;;18.60;;
15022;SDS011;19850;49.576;10.880;2022-12-20T10:47:48;24.10;;;18.27;;
15022;SDS011;19850;49.576;10.880;2022-12-20T10:51:53;24.77;;;18.40;;
15022;SDS011;19850;49.576;10.880;2022-12-20T10:56:09;24.50;;;17.97;;
15022;SDS011;19850;49.576;10.880;2022-12-20T11:00:26;26.10;;;19.00;;
15022;SDS011;19850;49.576;10.880;2022-12-20T11:04:31;25.17;;;18.73;;
15022;SDS011;19850;49.576;10.880;2022-12-20T11:08:36;24.00;;;18.23;;
15022;SDS011;19850;49.576;10.880;2022-12-20T11:12:52;28.43;;;19.40;;
15022;SDS011;19850;49.576;10.880;2022-12-20T11:16:56;24.70;;;19.00;;
15022;SDS011;19850;49.576;10.880;2022-12-20T11:21:02;23.37;;;17.97;;
15022;SDS011;19850;49.576;10.880;2022-12-20T11:25:25;25.70;;;19.50;;
15022;SDS011;19850;49.576;10.880;2022-12-20T11:29:40;24.63;;;18.13;;
15022;SDS011;19850;49.576;10.880;2022-12-20T11:33:57;23.33;;;17.50;;
15022;SDS011;19850;49.576;10.880;2022-12-20T11:38:06;25.60;;;19.33;;
15022;SDS011;19850;49.576;10.880;2022-12-20T11:42:16;22.33;;;17.93;;
15022;SDS011;19850;49.576;10.880;2022-12-20T11:46:29;23.73;;;18.67;;
15022;SDS011;19850;49.576;10.880;2022-12-20T11:50:41;24.77;;;18.23;;
15022;SDS011;19850;49.576;10.880;2022-12-20T11:54:53;22.77;;;18.60;;
15022;SDS011;19850;49.576;10.880;2022-12-20T11:59:01;25.23;;;18.30;;
15022;SDS011;19850;49.576;10.880;2022-12-20T12:03:08;22.07;;;17.57;;
15022;SDS011;19850;49.576;10.880;2022-12-20T12:07:16;22.53;;;18.07;;
15022;SDS011;19850;49.576;10.880;2022-12-20T12:11:23;20.13;;;15.87;;
15022;SDS011;19850;49.576;10.880;2022-12-20T12:15:47;22.03;;;17.40;;
15022;SDS011;19850;49.576;10.880;2022-12-20T12:19:55;21.10;;;16.30;;
15022;SDS011;19850;49.576;10.880;2022-12-20T12:24:04;20.77;;;16.57;;
15022;SDS011;19850;49.576;10.880;2022-12-20T12:28:09;21.43;;;15.53;;
15022;SDS011;19850;49.576;10.880;2022-12-20T12:32:15;21.17;;;15.87;;
15022;SDS011;19850;49.576;10.880;2022-12-20T12:36:32;22.47;;;16.67;;
15022;SDS011;19850;49.576;10.880;2022-12-20T12:40:46;19.97;;;15.27;;
15022;SDS011;19850;49.576;10.880;2022-12-20T12:45:00;22.23;;;16.47;;
15022;SDS011;19850;49.576;10.880;2022-12-20T12:49:05;23.63;;;17.10;;
15022;SDS011;19850;49.576;10.880;2022-12-20T12:53:12;23.57;;;16.47;;
15022;SDS011;19850;49.576;10.880;2022-12-20T12:57:21;20.57;;;14.60;;
15022;SDS011;19850;49.576;10.880;2022-12-20T13:05:50;20.07;;;15.40;;
15022;SDS011;19850;49.576;10.880;2022-12-20T13:09:53;22.80;;;16.00;;
15022;SDS011;19850;49.576;10.880;2022-12-20T13:18:26;18.87;;;15.20;;
15022;SDS011;19850;49.576;10.880;2022-12-20T13:22:29;19.27;;;15.47;;
15022;SDS011;19850;49.576;10.880;2022-12-20T13:35:54;19.33;;;15.23;;
15022;SDS011;19850;49.576;10.880;2022-12-20T13:40:01;21.27;;;15.03;;
15022;SDS011;19850;49.576;10.880;2022-12-20T13:44:22;17.00;;;13.63;;
15022;SDS011;19850;49.576;10.880;2022-12-20T13:48:38;18.93;;;13.73;;
15022;SDS011;19850;49.576;10.880;2022-12-20T13:52:44;17.30;;;14.00;;
15022;SDS011;19850;49.576;10.880;2022-12-20T13:56:47;19.83;;;15.20;;
15022;SDS011;19850;49.576;10.880;2022-12-20T14:00:51;19.33;;;14.53;;
15022;SDS011;19850;49.576;10.880;2022-12-20T14:04:58;16.40;;;13.30;;
15022;SDS011;19850;49.576;10.880;2022-12-20T14:09:02;18.37;;;15.30;;
15022;SDS011;19850;49.576;10.880;2022-12-20T14:13:12;21.50;;;15.30;;
15022;SDS011;19850;49.576;10.880;2022-12-20T14:17:23;19.13;;;14.73;;
15022;SDS011;19850;49.576;10.880;2022-12-20T14:21:28;18.97;;;14.83;;
15022;SDS011;19850;49.576;10.880;2022-12-20T14:25:36;18.97;;;14.77;;
15022;SDS011;19850;49.576;10.880;2022-12-20T14:29:42;19.70;;;14.50;;
15022;SDS011;19850;49.576;10.880;2022-12-20T14:33:47;20.93;;;16.63;;
15022;SDS011;19850;49.576;10.880;2022-12-20T14:37:54;20.67;;;14.93;;
15022;SDS011;19850;49.576;10.880;2022-12-20T14:42:00;20.20;;;15.70;;
15022;SDS011;19850;49.576;10.880;2022-12-20T14:46:14;24.03;;;16.47;;
15022;SDS011;19850;49.576;10.880;2022-12-20T14:50:21;18.53;;;15.23;;
15022;SDS011;19850;49.576;10.880;2022-12-20T14:54:28;18.70;;;15.13;;
15022;SDS011;19850;49.576;10.880;2022-12-20T14:59:02;23.10;;;17.57;;
15022;SDS011;19850;49.576;10.880;2022-12-20T15:03:10;20.13;;;15.70;;
15022;SDS011;19850;49.576;10.880;2022-12-20T15:07:27;19.27;;;15.90;;
15022;SDS011;19850;49.576;10.880;2022-12-20T15:11:32;19.80;;;15.10;;
15022;SDS011;19850;49.576;10.880;2022-12-20T15:15:36;18.27;;;13.93;;
15022;SDS011;19850;49.576;10.880;2022-12-20T15:19:39;19.57;;;15.03;;
15022;SDS011;19850;49.576;10.880;2022-12-20T15:23:45;18.53;;;15.43;;
15022;SDS011;19850;49.576;10.880;2022-12-20T15:27:54;20.13;;;14.00;;
15022;SDS011;19850;49.576;10.880;2022-12-20T15:31:58;18.20;;;14.23;;
15022;SDS011;19850;49.576;10.880;2022-12-20T15:36:06;18.73;;;15.03;;
15022;SDS011;19850;49.576;10.880;2022-12-20T15:40:12;23.50;;;16.43;;
15022;SDS011;19850;49.576;10.880;2022-12-20T15:44:18;20.60;;;15.37;;
15022;SDS011;19850;49.576;10.880;2022-12-20T15:48:22;23.13;;;16.07;;
15022;SDS011;19850;49.576;10.880;2022-12-20T15:52:25;21.80;;;16.60;;
15022;SDS011;19850;49.576;10.880;2022-12-20T15:56:28;21.83;;;16.17;;
15022;SDS011;19850;49.576;10.880;2022-12-20T16:00:32;22.37;;;16.37;;
15022;SDS011;19850;49.576;10.880;2022-12-20T16:04:36;20.60;;;16.00;;
15022;SDS011;19850;49.576;10.880;2022-12-20T16:08:39;23.77;;;16.83;;
15022;SDS011;19850;49.576;10.880;2022-12-20T16:12:42;21.60;;;16.30;;
15022;SDS011;19850;49.576;10.880;2022-12-20T16:16:46;20.87;;;15.90;;
15022;SDS011;19850;49.576;10.880;2022-12-20T16:20:50;21.13;;;15.50;;
15022;SDS011;19850;49.576;10.880;2022-12-20T16:24:53;19.17;;;14.73;;
15022;SDS011;19850;49.576;10.880;2022-12-20T16:28:56;20.23;;;15.03;;
15022;SDS011;19850;49.576;10.880;2022-12-20T16:33:00;19.47;;;15.03;;
15022;SDS011;19850;49.576;10.880;2022-12-20T16:37:03;23.10;;;17.83;;
15022;SDS011;19850;49.576;10.880;2022-12-20T16:41:10;22.93;;;17.93;;
15022;SDS011;19850;49.576;10.880;2022-12-20T16:45:15;21.53;;;16.57;;
15022;SDS011;19850;49.576;10.880;2022-12-20T16:49:21;26.23;;;18.60;;
15022;SDS011;19850;49.576;10.880;2022-12-20T16:53:25;23.47;;;17.00;;
15022;SDS011;19850;49.576;10.880;2022-12-20T16:57:42;23.00;;;17.23;;
15022;SDS011;19850;49.576;10.880;2022-12-20T17:01:45;27.53;;;20.53;;
15022;SDS011;19850;49.576;10.880;2022-12-20T17:05:50;25.27;;;18.90;;
15022;SDS011;19850;49.576;10.880;2022-12-20T17:09:53;28.40;;;20.70;;
15022;SDS011;19850;49.576;10.880;2022-12-20T17:13:56;25.87;;;19.07;;
15022;SDS011;19850;49.576;10.880;2022-12-20T17:18:00;23.50;;;18.00;;
15022;SDS011;19850;49.576;10.880;2022-12-20T17:22:04;24.20;;;18.23;;
15022;SDS011;19850;49.576;10.880;2022-12-20T17:26:25;22.57;;;17.10;;
15022;SDS011;19850;49.576;10.880;2022-12-20T17:30:29;22.83;;;17.40;;
15022;SDS011;19850;49.576;10.880;2022-12-20T17:34:32;26.27;;;17.83;;
15022;SDS011;19850;49.576;10.880;2022-12-20T17:38:38;25.07;;;17.47;;
15022;SDS011;19850;49.576;10.880;2022-12-20T17:42:41;21.33;;;16.53;;
15022;SDS011;19850;49.576;10.880;2022-12-20T17:46:44;21.67;;;16.70;;
15022;SDS011;19850;49.576;10.880;2022-12-20T17:50:47;24.03;;;18.00;;
15022;SDS011;19850;49.576;10.880;2022-12-20T17:54:51;23.80;;;18.13;;
15022;SDS011;19850;49.576;10.880;2022-12-20T17:58:54;25.87;;;18.03;;
15022;SDS011;19850;49.576;10.880;2022-12-20T18:02:57;22.50;;;17.83;;
15022;SDS011;19850;49.576;10.880;2022-12-20T18:07:01;23.70;;;18.23;;
15022;SDS011;19850;49.576;10.880;2022-12-20T18:11:06;24.87;;;17.30;;
15022;SDS011;19850;49.576;10.880;2022-12-20T18:15:09;24.53;;;17.53;;
15022;SDS011;19850;49.576;10.880;2022-12-20T18:19:13;26.37;;;18.40;;
15022;SDS011;19850;49.576;10.880;2022-12-20T18:23:17;24.50;;;17.83;;
15022;SDS011;19850;49.576;10.880;2022-12-20T18:27:21;26.90;;;19.47;;
15022;SDS011;19850;49.576;10.880;2022-12-20T18:31:32;25.40;;;19.90;;
15022;SDS011;19850;49.576;10.880;2022-12-20T18:35:35;28.43;;;20.37;;
15022;SDS011;19850;49.576;10.880;2022-12-20T18:39:38;27.43;;;19.17;;
15022;SDS011;19850;49.576;10.880;2022-12-20T18:43:43;24.17;;;18.27;;
15022;SDS011;19850;49.576;10.880;2022-12-20T18:47:47;25.53;;;18.67;;
15022;SDS011;19850;49.576;10.880;2022-12-20T18:51:50;23.23;;;18.93;;
15022;SDS011;19850;49.576;10.880;2022-12-20T18:55:53;34.60;;;21.57;;
15022;SDS011;19850;49.576;10.880;2022-12-20T18:59:57;27.97;;;20.47;;
15022;SDS011;19850;49.576;10.880;2022-12-20T19:04:01;26.57;;;19.30;;
15022;SDS011;19850;49.576;10.880;2022-12-20T19:08:05;25.10;;;18.73;;
15022;SDS011;19850;49.576;10.880;2022-12-20T19:12:08;25.27;;;18.47;;
15022;SDS011;19850;49.576;10.880;2022-12-20T19:16:13;22.90;;;16.97;;
15022;SDS011;19850;49.576;10.880;2022-12-20T19:20:17;22.33;;;16.37;;
15022;SDS011;19850;49.576;10.880;2022-12-20T19:24:21;24.40;;;18.53;;
15022;SDS011;19850;49.576;10.880;2022-12-20T19:28:23;25.50;;;18.17;;
15022;SDS011;19850;49.576;10.880;2022-12-20T19:32:28;24.53;;;18.03;;
15022;SDS011;19850;49.576;10.880;2022-12-20T19:36:31;24.70;;;18.87;;
15022;SDS011;19850;49.576;10.880;2022-12-20T19:40:37;23.93;;;18.37;;
15022;SDS011;19850;49.576;10.880;2022-12-20T19:44:39;26.47;;;19.10;;
15022;SDS011;19850;49.576;10.880;2022-12-20T19:48:43;26.83;;;18.87;;
15022;SDS011;19850;49.576;10.880;2022-12-20T19:52:46;24.67;;;18.70;;
15022;SDS011;19850;49.576;10.880;2022-12-20T19:56:49;26.13;;;18.43;;
15022;SDS011;19850;49.576;10.880;2022-12-20T20:00:52;26.07;;;18.87;;
15022;SDS011;19850;49.576;10.880;2022-12-20T20:04:56;25.30;;;18.23;;
15022;SDS011;19850;49.576;10.880;2022-12-20T20:08:59;26.60;;;18.50;;
15022;SDS011;19850;49.576;10.880;2022-12-20T20:13:02;26.33;;;18.50;;
15022;SDS011;19850;49.576;10.880;2022-12-20T20:17:06;23.73;;;17.57;;
15022;SDS011;19850;49.576;10.880;2022-12-20T20:21:11;23.20;;;18.37;;
15022;SDS011;19850;49.576;10.880;2022-12-20T20:25:16;23.03;;;17.47;;
15022;SDS011;19850;49.576;10.880;2022-12-20T20:29:19;26.83;;;18.53;;
15022;SDS011;19850;49.576;10.880;2022-12-20T20:33:22;23.50;;;16.23;;
15022;SDS011;19850;49.576;10.880;2022-12-20T20:37:27;21.93;;;16.23;;
15022;SDS011;19850;49.576;10.880;2022-12-20T20:41:30;25.90;;;17.37;;
15022;SDS011;19850;49.576;10.880;2022-12-20T20:45:33;24.17;;;17.33;;
15022;SDS011;19850;49.576;10.880;2022-12-20T20:49:35;24.63;;;17.77;;
15022;SDS011;19850;49.576;10.880;2022-12-20T20:53:40;21.83;;;16.20;;
15022;SDS011;19850;49.576;10.880;2022-12-20T20:57:43;32.10;;;20.93;;
15022;SDS011;19850;49.576;10.880;2022-12-20T21:01:46;23.10;;;16.83;;
15022;SDS011;19850;49.576;10.880;2022-12-20T21:05:49;25.43;;;17.53;;
15022;SDS011;19850;49.576;10.880;2022-12-20T21:10:13;25.77;;;18.53;;
15022;SDS011;19850;49.576;10.880;2022-12-20T21:14:16;24.20;;;17.57;;
15022;SDS011;19850;49.576;10.880;2022-12-20T21:18:39;19.77;;;15.47;;
15022;SDS011;19850;49.576;10.880;2022-12-20T21:22:42;22.07;;;15.60;;
15022;SDS011;19850;49.576;10.880;2022-12-20T21:26:46;24.40;;;17.53;;
15022;SDS011;19850;49.576;10.880;2022-12-20T21:30:56;24.03;;;16.60;;
15022;SDS011;19850;49.576;10.880;2022-12-20T21:34:59;20.70;;;15.33;;
15022;SDS011;19850;49.576;10.880;2022-12-20T21:39:02;22.80;;;16.60;;
15022;SDS011;19850;49.576;10.880;2022-12-20T21:43:07;23.67;;;17.13;;
15022;SDS011;19850;49.576;10.880;2022-12-20T21:47:09;22.40;;;18.03;;
15022;SDS011;19850;49.576;10.880;2022-12-20T21:51:13;22.07;;;17.33;;
15022;SDS011;19850;49.576;10.880;2022-12-20T21:55:17;23.23;;;17.33;;
15022;SDS011;19850;49.576;10.880;2022-12-20T21:59:22;24.60;;;18.17;;
15022;SDS011;19850;49.576;10.880;2022-12-20T22:03:27;28.57;;;19.23;;
15022;SDS011;19850;49.576;10.880;2022-12-20T22:07:30;25.20;;;17.67;;
15022;SDS011;19850;49.576;10.880;2022-12-20T22:11:33;22.37;;;16.67;;
15022;SDS011;19850;49.576;10.880;2022-12-20T22:15:37;21.77;;;16.77;;
15022;SDS011;19850;49.576;10.880;2022-12-20T22:19:41;24.30;;;18.27;;
15022;SDS011;19850;49.576;10.880;2022-12-20T22:23:44;25.40;;;18.30;;
15022;SDS011;19850;49.576;10.880;2022-12-20T22:27:47;26.10;;;17.97;;
15022;SDS011;19850;49.576;10.880;2022-12-20T22:31:51;24.17;;;18.07;;
15022;SDS011;19850;49.576;10.880;2022-12-20T22:35:54;23.90;;;17.40;;
15022;SDS011;19850;49.576;10.880;2022-12-20T22:39:56;23.50;;;17.80;;
15022;SDS011;19850;49.576;10.880;2022-12-20T22:43:59;25.47;;;17.63;;
15022;SDS011;19850;49.576;10.880;2022-12-20T22:48:04;25.63;;;18.57;;
15022;SDS011;19850;49.576;10.880;2022-12-20T22:52:07;24.77;;;18.43;;
15022;SDS011;19850;49.576;10.880;2022-12-20T22:56:10;27.50;;;20.40;;
15022;SDS011;19850;49.576;10.880;2022-12-20T23:00:13;27.83;;;19.97;;
15022;SDS011;19850;49.576;10.880;2022-12-20T23:04:18;27.27;;;20.63;;
15022;SDS011;19850;49.576;10.880;2022-12-20T23:08:21;26.67;;;20.23;;
15022;SDS011;19850;49.576;10.880;2022-12-20T23:12:25;26.43;;;19.03;;
15022;SDS011;19850;49.576;10.880;2022-12-20T23:16:45;29.50;;;19.43;;
15022;SDS011;19850;49.576;10.880;2022-12-20T23:20:49;26.00;;;19.77;;
15022;SDS011;19850;49.576;10.880;2022-12-20T23:25:11;25.37;;;18.47;;
15022;SDS011;19850;49.576;10.880;2022-12-20T23:29:15;26.93;;;18.10;;
15022;SDS011;19850;49.576;10.880;2022-12-20T23:33:18;27.67;;;19.50;;
15022;SDS011;19850;49.576;10.880;2022-12-20T23:37:22;28.20;;;19.03;;
15022;SDS011;19850;49.576;10.880;2022-12-20T23:41:25;27.30;;;19.00;;
15022;SDS011;19850;49.576;10.880;2022-12-20T23:45:28;25.27;;;18.13;;
15022;SDS011;19850;49.576;10.880;2022-12-20T23:49:31;27.53;;;19.13;;
15022;SDS011;19850;49.576;10.880;2022-12-20T23:53:36;23.87;;;18.73;;
15022;SDS011;19850;49.576;10.880;2022-12-20T23:57:39;25.50;;;19.50;;
